Time;durP1;ratioP1;P1;durP2;ratioP2;P2;SDS_P1;SDS_P2;PMS_P1;PMS_P2;Temp;Humidity;BMP_temperature;BMP_pressure;BME280_temperature;BME280_humidity;BME280_pressure;Samples;Min_cycle;Max_cycle;Signal;HPM_P1;HPM_P2
2023/10/23 00:00:23;;;;;;;9.38;8.05;;;12.30;99.90;;;;;;5073709;28;20499;-87
2023/10/23 00:02:51;;;;;;;11.00;8.15;;;12.70;99.90;;;;;;5060760;28;20029;-88
2023/10/23 00:05:17;;;;;;;8.55;7.72;;;12.70;99.90;;;;;;5052614;28;20024;-88
2023/10/23 00:07:51;;;;;;;9.27;8.10;;;13.50;99.90;;;;;;5061721;28;20487;-88
2023/10/23 00:10:18;;;;;;;9.02;8.15;;;13.50;99.90;;;;;;5056432;28;20072;-89
2023/10/23 00:12:53;;;;;;;8.05;7.25;;;12.20;99.90;;;;;;5071641;28;20048;-89
2023/10/23 00:15:18;;;;;;;9.75;8.77;;;13.80;99.90;;;;;;5061077;28;20021;-90
2023/10/23 00:17:49;;;;;;;11.15;8.25;;;12.70;99.90;;;;;;5052555;28;20035;-89
2023/10/23 00:20:15;;;;;;;10.90;8.35;;;13.70;99.90;;;;;;5052612;28;20017;-88
2023/10/23 00:22:41;;;;;;;9.05;8.18;;;13.10;99.90;;;;;;5052099;28;20025;-86
2023/10/23 00:25:06;;;;;;;12.23;9.15;;;13.00;99.90;;;;;;5052788;28;20478;-88
2023/10/23 00:27:32;;;;;;;10.88;8.52;;;12.10;99.90;;;;;;5051415;28;20052;-88
2023/10/23 00:30:00;;;;;;;11.30;9.02;;;13.70;99.90;;;;;;5052174;28;20036;-87
2023/10/23 00:32:25;;;;;;;9.20;8.30;;;13.80;99.90;;;;;;5053359;28;20081;-88
2023/10/23 00:34:51;;;;;;;10.18;9.10;;;12.50;99.90;;;;;;5066910;28;20032;-88
2023/10/23 00:37:16;;;;;;;12.45;9.32;;;13.60;99.90;;;;;;5077850;28;20024;-87
2023/10/23 00:39:42;;;;;;;10.55;9.40;;;13.70;99.90;;;;;;5072568;28;20472;-89
2023/10/23 00:42:08;;;;;;;10.25;9.23;;;13.60;99.90;;;;;;5068722;28;20016;-87
2023/10/23 00:44:33;;;;;;;9.25;8.38;;;12.80;99.90;;;;;;5056573;28;20056;-89
2023/10/23 00:46:59;;;;;;;11.40;9.15;;;13.20;99.90;;;;;;5052316;28;20021;-89
2023/10/23 00:49:25;;;;;;;10.13;8.77;;;13.60;99.90;;;;;;5058888;28;20638;-87
2023/10/23 00:51:54;;;;;;;9.52;8.55;;;12.60;99.90;;;;;;5072016;28;20032;-88
2023/10/23 00:54:20;;;;;;;11.20;9.10;;;12.50;99.90;;;;;;5071722;28;20540;-87
2023/10/23 00:56:49;;;;;;;12.43;9.57;;;12.80;99.90;;;;;;5050367;28;20036;-88
2023/10/23 00:59:24;;;;;;;11.57;9.07;;;13.20;99.90;;;;;;5052077;28;20025;-88
2023/10/23 01:01:55;;;;;;;10.50;9.30;;;12.10;99.90;;;;;;5052048;28;20485;-87
2023/10/23 01:04:21;;;;;;;10.27;9.05;;;11.90;99.90;;;;;;5068742;28;20075;-87
2023/10/23 01:06:46;;;;;;;11.45;9.85;;;12.70;99.90;;;;;;5064210;28;20025;-87
2023/10/23 01:09:12;;;;;;;10.60;9.60;;;12.10;99.90;;;;;;5051751;28;20033;-89
2023/10/23 01:11:40;;;;;;;13.10;10.38;;;12.30;99.90;;;;;;5054206;28;20061;-87
2023/10/23 01:14:06;;;;;;;11.50;10.40;;;13.10;99.90;;;;;;5061261;28;20389;-88
2023/10/23 01:16:31;;;;;;;13.77;9.68;;;12.40;99.90;;;;;;5075619;28;20025;-89
2023/10/23 01:18:57;;;;;;;10.65;9.50;;;13.50;99.90;;;;;;5075390;28;20108;-87
2023/10/23 01:21:23;;;;;;;10.70;9.55;;;13.50;99.90;;;;;;5075900;28;20040;-88
2023/10/23 01:23:50;;;;;;;10.40;9.40;;;12.80;99.90;;;;;;5075086;28;20020;-88
2023/10/23 01:26:16;;;;;;;11.40;9.80;;;13.30;99.90;;;;;;5076093;28;20471;-88
2023/10/23 01:28:41;;;;;;;12.13;10.45;;;13.00;99.90;;;;;;5056816;28;20056;-87
2023/10/23 01:31:07;;;;;;;13.25;10.57;;;13.40;99.90;;;;;;5054295;28;20025;-89
2023/10/23 01:33:33;;;;;;;10.85;9.85;;;12.60;99.90;;;;;;5054875;28;20472;-89
2023/10/23 01:36:08;;;;;;;11.25;9.90;;;12.50;99.90;;;;;;5063498;28;20024;-87
2023/10/23 01:38:34;;;;;;;12.88;10.20;;;13.30;99.90;;;;;;5058312;28;20029;-89
2023/10/23 01:41:08;;;;;;;11.20;10.15;;;13.00;99.90;;;;;;5072243;28;20028;-89
2023/10/23 01:43:34;;;;;;;13.52;9.85;;;12.30;99.90;;;;;;5070837;28;20052;-88
2023/10/23 01:46:12;;;;;;;11.23;10.13;;;10.90;99.90;;;;;;5068478;28;20377;-90
2023/10/23 01:48:39;;;;;;;11.52;10.38;;;12.60;99.90;;;;;;5056513;28;20044;-89
2023/10/23 01:51:11;;;;;;;12.30;9.32;;;12.20;99.90;;;;;;5064972;28;20437;-89
2023/10/23 01:53:36;;;;;;;17.92;10.50;;;13.10;99.90;;;;;;5054921;28;20499;-88
2023/10/23 01:56:08;;;;;;;15.38;10.05;;;12.40;99.90;;;;;;5054075;28;20028;-87
2023/10/23 01:58:43;;;;;;;10.25;9.35;;;12.60;99.90;;;;;;5053362;28;20021;-90
2023/10/23 02:01:19;;;;;;;10.50;9.27;;;13.30;99.90;;;;;;5068448;28;20017;-87
2023/10/23 02:03:44;;;;;;;9.25;8.35;;;12.20;99.90;;;;;;5074335;28;20024;-89
2023/10/23 02:06:10;;;;;;;10.57;8.77;;;12.70;99.90;;;;;;5074652;28;20027;-89
2023/10/23 02:08:35;;;;;;;11.48;10.02;;;13.00;99.90;;;;;;5059484;28;20041;-88
2023/10/23 02:11:01;;;;;;;11.13;10.02;;;12.00;99.90;;;;;;5054445;28;20033;-90
2023/10/23 02:13:26;;;;;;;11.52;10.45;;;12.80;99.90;;;;;;5070303;28;20116;-88
2023/10/23 02:15:52;;;;;;;10.55;9.55;;;12.80;99.90;;;;;;5054834;28;20033;-88
2023/10/23 02:18:18;;;;;;;9.93;8.48;;;12.00;99.90;;;;;;5065565;28;20028;-88
2023/10/23 02:20:45;;;;;;;10.73;9.00;;;13.00;99.90;;;;;;5063395;28;20029;-87
2023/10/23 02:23:19;;;;;;;11.38;9.43;;;12.60;99.90;;;;;;5067103;28;20025;-88
2023/10/23 02:25:50;;;;;;;9.98;8.98;;;11.20;99.90;;;;;;5074044;28;20368;-88
2023/10/23 02:28:16;;;;;;;10.07;8.85;;;12.10;99.90;;;;;;5061852;28;20080;-86
2023/10/23 02:30:50;;;;;;;8.35;7.55;;;12.60;99.90;;;;;;5062818;28;20025;-89
2023/10/23 02:33:21;;;;;;;7.75;7.05;;;11.90;99.90;;;;;;5072429;28;20033;-88
2023/10/23 02:35:47;;;;;;;7.18;6.47;;;11.60;99.90;;;;;;5070244;28;20409;-88
2023/10/23 02:38:25;;;;;;;8.00;6.45;;;12.90;99.90;;;;;;5054372;28;20060;-88
2023/10/23 02:40:52;;;;;;;6.38;5.78;;;11.50;99.90;;;;;;5053406;28;20041;-88
2023/10/23 02:43:18;;;;;;;6.55;5.93;;;12.90;99.90;;;;;;5053247;28;20031;-88
2023/10/23 02:45:49;;;;;;;6.20;5.70;;;12.80;99.90;;;;;;5053211;28;20032;-88
2023/10/23 02:48:16;;;;;;;6.38;5.15;;;12.50;99.90;;;;;;5053114;28;20492;-87
2023/10/23 02:50:43;;;;;;;6.18;5.57;;;12.80;99.90;;;;;;5053886;28;20033;-86
2023/10/23 02:53:08;;;;;;;6.28;5.68;;;12.50;99.90;;;;;;5037293;28;20044;-87
2023/10/23 02:55:43;;;;;;;7.45;5.65;;;11.70;99.90;;;;;;5053661;28;20485;-89
2023/10/23 02:58:11;;;;;;;5.38;4.97;;;11.00;99.90;;;;;;5071771;28;20024;-89
2023/10/23 03:00:38;;;;;;;6.10;5.50;;;12.80;99.90;;;;;;5066330;28;20481;-88
2023/10/23 03:03:04;;;;;;;6.72;6.07;;;11.60;99.90;;;;;;5054378;28;20029;-88
2023/10/23 03:05:36;;;;;;;7.57;5.55;;;12.50;99.90;;;;;;5054707;28;20078;-87
2023/10/23 03:08:02;;;;;;;7.32;6.63;;;11.00;99.90;;;;;;5055007;28;20037;-88
2023/10/23 03:10:28;;;;;;;8.57;7.70;;;11.00;99.90;;;;;;5080271;28;20025;-88
2023/10/23 03:12:57;;;;;;;7.88;7.15;;;12.10;99.90;;;;;;5087397;28;20063;-88
2023/10/23 03:15:31;;;;;;;7.57;6.43;;;12.40;99.90;;;;;;5072472;28;20024;-86
2023/10/23 03:17:57;;;;;;;7.32;6.38;;;12.40;99.90;;;;;;5060589;28;20083;-89
2023/10/23 03:20:32;;;;;;;10.77;8.43;;;11.00;99.90;;;;;;5061113;28;20017;-88
2023/10/23 03:22:58;;;;;;;11.98;10.80;;;12.10;99.90;;;;;;5066676;28;20057;-87
2023/10/23 03:25:33;;;;;;;10.63;9.65;;;12.40;99.90;;;;;;5058594;28;20028;-89
2023/10/23 03:28:05;;;;;;;11.82;10.63;;;12.20;99.90;;;;;;5052306;28;20048;-88
2023/10/23 03:30:30;;;;;;;13.25;10.88;;;12.70;99.90;;;;;;5051671;28;20587;-88
2023/10/23 03:32:56;;;;;;;15.80;11.35;;;12.60;99.90;;;;;;5051409;28;20029;-88
2023/10/23 03:35:21;;;;;;;14.60;12.07;;;12.50;99.90;;;;;;5058385;28;20017;-88
2023/10/23 03:37:47;;;;;;;13.82;11.45;;;13.00;99.90;;;;;;5066874;28;20063;-89
2023/10/23 03:40:13;;;;;;;15.05;11.32;;;12.10;99.90;;;;;;5053158;28;20021;-88
2023/10/23 03:42:45;;;;;;;13.00;11.07;;;12.60;99.90;;;;;;5056507;28;20102;-89
2023/10/23 03:45:13;;;;;;;15.90;12.10;;;12.30;99.90;;;;;;5054710;28;20095;-89
2023/10/23 03:47:39;;;;;;;13.10;10.90;;;11.60;99.90;;;;;;5057423;28;20550;-89
2023/10/23 03:50:10;;;;;;;15.35;12.00;;;12.10;99.90;;;;;;5052289;28;20111;-89
2023/10/23 03:52:47;;;;;;;12.75;11.50;;;11.60;99.90;;;;;;5053262;28;20368;-89
2023/10/23 03:55:16;;;;;;;15.15;11.80;;;11.50;99.90;;;;;;5073223;28;20119;-90
2023/10/23 03:57:48;;;;;;;13.35;11.13;;;11.50;99.90;;;;;;5060793;28;20392;-89
2023/10/23 04:00:16;;;;;;;15.88;11.23;;;13.10;99.90;;;;;;5053190;28;20024;-89
2023/10/23 04:02:48;;;;;;;13.25;11.27;;;11.60;99.90;;;;;;5070944;28;20063;-90
2023/10/23 04:05:16;;;;;;;16.13;11.43;;;11.80;99.90;;;;;;5072247;28;20028;-89
2023/10/23 04:07:50;;;;;;;16.88;11.93;;;12.90;99.90;;;;;;5072669;28;20029;-90
2023/10/23 04:10:19;;;;;;;18.55;12.38;;;12.90;99.90;;;;;;5073136;28;20032;-90
2023/10/23 04:12:50;;;;;;;20.08;13.00;;;12.50;99.90;;;;;;5071686;28;20376;-88
2023/10/23 04:15:18;;;;;;;19.20;13.30;;;13.20;99.90;;;;;;5072818;28;20028;-90
2023/10/23 04:17:47;;;;;;;25.85;16.67;;;11.80;99.90;;;;;;5074990;28;20032;-89
2023/10/23 04:20:18;;;;;;;27.98;19.35;;;11.80;99.90;;;;;;5063325;28;20083;-89
2023/10/23 04:22:53;;;;;;;28.15;17.40;;;11.80;99.90;;;;;;5071804;28;20056;-90
2023/10/23 04:25:25;;;;;;;26.25;16.15;;;13.00;99.90;;;;;;5075740;28;20033;-91
2023/10/23 04:27:53;;;;;;;31.70;19.77;;;12.10;99.90;;;;;;5071225;28;20044;-88
2023/10/23 04:30:19;;;;;;;36.50;20.60;;;11.40;99.90;;;;;;5072994;28;20029;-89
2023/10/23 04:32:50;;;;;;;30.25;20.52;;;11.90;99.90;;;;;;5073848;28;20368;-87
2023/10/23 04:35:28;;;;;;;34.92;21.63;;;12.30;99.90;;;;;;5073441;28;20032;-87
2023/10/23 04:37:54;;;;;;;32.13;20.15;;;13.10;99.90;;;;;;5070958;28;20503;-88
2023/10/23 04:40:22;;;;;;;31.50;19.20;;;12.10;99.90;;;;;;5051998;28;20029;-88
2023/10/23 04:42:57;;;;;;;36.83;21.42;;;13.00;99.90;;;;;;5051697;28;20086;-88
2023/10/23 04:45:22;;;;;;;39.08;22.05;;;12.60;99.90;;;;;;5074795;28;20032;-89
2023/10/23 04:47:48;;;;;;;38.15;22.15;;;11.80;99.90;;;;;;5076391;28;20024;-88
2023/10/23 04:50:13;;;;;;;27.90;19.27;;;12.70;99.90;;;;;;5076849;28;20039;-89
2023/10/23 04:52:39;;;;;;;39.15;22.67;;;11.90;99.90;;;;;;5075368;28;20469;-89
2023/10/23 04:55:06;;;;;;;38.97;24.88;;;12.50;99.90;;;;;;5076348;28;20111;-88
2023/10/23 04:57:31;;;;;;;44.90;25.80;;;11.90;99.90;;;;;;5073912;28;20051;-89
2023/10/23 04:59:57;;;;;;;46.15;26.42;;;13.30;99.90;;;;;;5056251;28;20476;-89
2023/10/23 05:02:25;;;;;;;48.00;26.95;;;12.20;99.90;;;;;;5056189;28;20100;-89
2023/10/23 05:04:54;;;;;;;54.38;29.27;;;12.80;99.90;;;;;;5056117;28;20021;-89
2023/10/23 05:07:20;;;;;;;46.08;29.40;;;13.50;99.90;;;;;;5056612;28;20027;-88
2023/10/23 05:09:48;;;;;;;53.17;28.52;;;11.60;99.90;;;;;;5061934;28;20021;-88
2023/10/23 05:12:16;;;;;;;48.50;28.02;;;12.10;99.90;;;;;;5070494;28;20107;-88
2023/10/23 05:14:42;;;;;;;51.85;29.13;;;13.70;99.90;;;;;;5075375;28;20067;-89
2023/10/23 05:17:08;;;;;;;49.28;27.35;;;13.60;99.90;;;;;;5063058;28;20422;-89
2023/10/23 05:19:36;;;;;;;49.33;29.33;;;13.00;99.90;;;;;;5063139;28;20029;-88
2023/10/23 05:22:02;;;;;;;50.33;29.02;;;13.50;99.90;;;;;;5058369;28;20028;-88
2023/10/23 05:24:29;;;;;;;52.17;30.30;;;12.00;99.90;;;;;;5063496;28;20068;-88
2023/10/23 05:26:54;;;;;;;50.40;29.13;;;12.00;99.90;;;;;;5063288;28;20044;-88
2023/10/23 05:29:20;;;;;;;51.40;29.35;;;12.10;99.90;;;;;;5063022;28;20045;-88
2023/10/23 05:31:45;;;;;;;50.47;30.05;;;12.40;99.90;;;;;;5066665;28;20028;-88
2023/10/23 05:34:11;;;;;;;51.78;29.45;;;12.30;99.90;;;;;;5064260;28;20107;-88
2023/10/23 05:36:37;;;;;;;58.20;30.98;;;13.30;99.90;;;;;;5064738;28;20017;-89
2023/10/23 05:39:02;;;;;;;55.28;32.50;;;11.80;99.90;;;;;;5066679;28;20013;-86
2023/10/23 05:41:28;;;;;;;53.65;31.67;;;11.90;99.90;;;;;;5064571;28;20036;-87
2023/10/23 05:43:53;;;;;;;49.92;31.40;;;13.50;99.90;;;;;;5065229;28;20031;-88
2023/10/23 05:46:20;;;;;;;52.45;30.38;;;12.90;99.90;;;;;;5069208;28;20031;-89
2023/10/23 05:48:49;;;;;;;55.35;31.35;;;13.40;99.90;;;;;;5063183;28;20116;-88
2023/10/23 05:51:27;;;;;;;54.92;29.90;;;12.00;99.90;;;;;;5068255;28;20027;-89
2023/10/23 05:53:56;;;;;;;51.42;31.17;;;13.20;99.90;;;;;;5065342;28;20064;-88
2023/10/23 05:56:28;;;;;;;54.42;31.73;;;13.30;99.90;;;;;;5071564;28;20024;-88
2023/10/23 05:58:56;;;;;;;55.78;32.00;;;13.60;99.90;;;;;;5073938;28;20016;-89
2023/10/23 06:01:29;;;;;;;58.65;32.92;;;13.40;99.90;;;;;;5074866;28;20047;-88
2023/10/23 06:03:54;;;;;;;52.47;32.33;;;12.20;99.90;;;;;;5076777;28;20514;-89
2023/10/23 06:06:20;;;;;;;51.75;31.60;;;13.60;99.90;;;;;;5076139;28;20027;-88
2023/10/23 06:08:55;;;;;;;56.67;33.95;;;13.40;99.90;;;;;;5063154;28;20039;-89
2023/10/23 06:11:24;;;;;;;62.13;34.95;;;12.10;99.90;;;;;;5053932;28;20025;-88
2023/10/23 06:13:55;;;;;;;60.40;35.10;;;13.30;99.90;;;;;;5077343;28;20040;-89
2023/10/23 06:16:33;;;;;;;57.03;32.30;;;13.10;99.90;;;;;;5076061;28;20025;-89
2023/10/23 06:18:59;;;;;;;56.13;33.70;;;12.40;99.90;;;;;;5074402;28;20404;-91
2023/10/23 06:21:25;;;;;;;50.60;31.67;;;13.30;99.90;;;;;;5074822;28;20406;-90
2023/10/23 06:23:50;;;;;;;54.15;31.02;;;13.50;99.90;;;;;;5075116;28;20031;-89
2023/10/23 06:26:16;;;;;;;45.90;28.45;;;13.00;99.90;;;;;;5075073;28;20028;-88
2023/10/23 06:28:42;;;;;;;50.22;30.63;;;12.30;99.90;;;;;;5054738;28;20049;-88
2023/10/23 06:31:11;;;;;;;51.60;32.17;;;12.00;99.90;;;;;;5055454;28;20033;-90
2023/10/23 06:33:51;;;;;;;45.55;30.42;;;12.60;99.90;;;;;;5064437;28;20109;-89
2023/10/23 06:36:17;;;;;;;;;;;12.00;99.90;;;;;;5061874;28;20481;-86
2023/10/23 06:39:02;;;;;;;;;;;;;;;;;;;;;
2023/10/23 06:41:37;;;;;;;;;;;;;;;;;;;;;
2023/10/23 06:44:33;;;;;;;39.90;23.17;;;13.60;99.90;;;;;;5031472;28;20038;-88
2023/10/23 06:46:58;;;;;;;32.45;22.98;;;11.90;99.90;;;;;;5020851;28;20111;-91
2023/10/23 06:49:26;;;;;;;33.88;23.73;;;12.10;99.90;;;;;;5058753;28;20033;-92
2023/10/23 06:51:52;;;;;;;35.85;25.35;;;11.90;99.90;;;;;;5054910;28;20017;-90
2023/10/23 06:54:19;;;;;;;33.70;22.98;;;13.20;99.90;;;;;;5062223;28;20100;-87
2023/10/23 06:56:48;;;;;;;36.15;24.30;;;12.80;99.90;;;;;;5054299;28;20029;-91
2023/10/23 06:59:13;;;;;;;46.60;22.35;;;12.70;99.90;;;;;;5057906;28;20473;-90
2023/10/23 07:01:39;;;;;;;32.38;20.80;;;13.20;99.90;;;;;;5054702;28;20024;-90
2023/10/23 07:04:04;;;;;;;31.15;20.67;;;13.10;99.90;;;;;;5054181;28;20472;-90
2023/10/23 07:06:30;;;;;;;32.33;20.33;;;11.90;99.90;;;;;;5058810;28;20472;-90
2023/10/23 07:08:56;;;;;;;27.42;19.10;;;13.40;99.90;;;;;;5059818;28;20742;-90
2023/10/23 07:11:22;;;;;;;30.10;19.02;;;11.80;99.90;;;;;;5075139;28;20027;-91
2023/10/23 07:13:48;;;;;;;27.05;18.60;;;11.80;99.90;;;;;;5074223;28;20032;-90
2023/10/23 07:16:16;;;;;;;26.88;19.08;;;13.10;99.90;;;;;;5070283;28;20519;-90
2023/10/23 07:18:41;;;;;;;31.58;19.63;;;11.70;99.90;;;;;;5074626;28;20025;-86
2023/10/23 07:21:08;;;;;;;31.38;20.30;;;13.10;99.90;;;;;;5062085;28;20027;-90
2023/10/23 07:23:34;;;;;;;36.63;18.73;;;13.20;99.90;;;;;;5072198;28;20025;-91
2023/10/23 07:26:08;;;;;;;39.67;18.55;;;13.00;99.90;;;;;;5073968;28;20028;-87
2023/10/23 07:28:38;;;;;;;32.83;18.23;;;11.70;99.90;;;;;;5073953;28;20400;-88
2023/10/23 07:31:35;;;;;;;36.90;19.27;;;11.70;99.90;;;;;;5064763;28;20069;-89
2023/10/23 07:34:04;;;;;;;35.33;18.92;;;11.70;99.90;;;;;;5070323;28;20042;-89
2023/10/23 07:36:37;;;;;;;29.23;18.40;;;13.30;99.90;;;;;;5068975;28;20025;-90
2023/10/23 07:39:07;;;;;;;29.23;17.15;;;13.20;99.90;;;;;;5069761;28;20040;-90
2023/10/23 07:41:38;;;;;;;21.17;15.82;;;13.00;99.90;;;;;;5071844;28;20048;-89
2023/10/23 07:44:07;;;;;;;25.15;17.38;;;12.90;99.90;;;;;;5071557;28;20032;-88
2023/10/23 07:46:36;;;;;;;27.50;17.60;;;13.50;99.90;;;;;;5070923;28;20028;-89
2023/10/23 07:49:07;;;;;;;23.58;18.42;;;11.80;99.90;;;;;;5069837;28;20082;-89
2023/10/23 07:51:33;;;;;;;25.27;18.25;;;13.50;99.90;;;;;;5066318;28;20029;-89
2023/10/23 07:54:15;;;;;;;26.42;17.58;;;11.80;99.90;;;;;;5076601;23;20024;-90
2023/10/23 07:56:40;;;;;;;20.00;15.88;;;12.10;99.90;;;;;;5052658;28;20037;-90
2023/10/23 07:59:27;;;;;;;22.05;16.45;;;13.30;99.90;;;;;;5050248;28;20496;-90
2023/10/23 08:01:53;;;;;;;25.67;16.75;;;11.80;99.90;;;;;;5094282;22;20389;-90
2023/10/23 08:04:43;;;;;;;25.27;16.23;;;12.30;99.90;;;;;;5031876;28;20033;-88
2023/10/23 08:07:17;;;;;;;20.30;16.60;;;11.00;99.90;;;;;;5059010;23;20049;-88
2023/10/23 08:09:42;;;;;;;23.38;16.63;;;12.10;99.90;;;;;;5073505;28;20159;-88
2023/10/23 08:12:08;;;;;;;33.63;17.98;;;13.10;99.90;;;;;;5078342;28;20020;-91
2023/10/23 08:14:40;;;;;;;22.13;18.13;;;12.80;99.90;;;;;;5073918;28;20090;-90
2023/10/23 08:17:06;;;;;;;23.38;17.63;;;12.60;99.90;;;;;;5069104;28;20024;-88
2023/10/23 08:22:24;;;;;;;28.45;17.05;;;12.10;99.90;;;;;;5105904;22;20048;-90
2023/10/23 08:24:50;;;;;;;25.90;18.10;;;13.20;99.90;;;;;;5090099;28;20027;-85
2023/10/23 08:27:38;;;;;;;25.20;17.60;;;11.40;99.90;;;;;;5088541;28;20026;-89
2023/10/23 08:30:21;;;;;;;26.45;18.50;;;11.60;99.90;;;;;;5091113;22;20021;-91
2023/10/23 08:32:47;;;;;;;27.58;18.80;;;11.60;99.90;;;;;;5071396;28;20499;-87
2023/10/23 08:35:12;;;;;;;30.17;17.33;;;13.20;99.90;;;;;;5071159;28;20028;-88
2023/10/23 08:37:38;;;;;;;35.80;22.45;;;11.70;99.90;;;;;;5072577;28;20063;-87
2023/10/23 08:40:07;;;;;;;36.10;22.05;;;12.50;99.90;;;;;;5074260;28;20024;-89
2023/10/23 08:42:37;;;;;;;40.42;23.35;;;11.70;99.90;;;;;;5067458;28;20050;-88
2023/10/23 08:45:03;;;;;;;40.67;24.05;;;11.70;99.90;;;;;;5079347;22;20518;-87
2023/10/23 08:47:38;;;;;;;42.72;24.00;;;11.70;99.90;;;;;;5050024;28;20044;-87
2023/10/23 08:50:04;;;;;;;39.58;24.17;;;11.70;99.90;;;;;;5051476;28;20025;-88
2023/10/23 08:52:59;;;;;;;43.28;25.10;;;11.80;99.90;;;;;;5051270;28;20025;-86
2023/10/23 08:55:30;;;;;;;38.72;23.92;;;11.50;99.90;;;;;;5051087;28;20029;-86
2023/10/23 08:58:00;;;;;;;37.17;24.05;;;11.80;99.90;;;;;;5048722;28;20031;-93
2023/10/23 09:00:37;;;;;;;37.80;23.63;;;11.90;99.90;;;;;;5051114;28;20024;-91
2023/10/23 09:03:10;;;;;;;38.28;23.63;;;13.20;99.90;;;;;;5051959;28;20511;-89
2023/10/23 09:05:36;;;;;;;39.35;24.70;;;12.60;99.90;;;;;;5049362;28;20033;-89
2023/10/23 09:08:09;;;;;;;45.20;25.58;;;13.30;99.90;;;;;;5049180;28;20065;-90
2023/10/23 09:11:09;;;;;;;39.78;24.67;;;13.10;99.90;;;;;;5050401;28;20107;-90
2023/10/23 09:13:41;;;;;;;44.50;24.73;;;11.90;99.90;;;;;;5048514;28;20112;-92
2023/10/23 09:16:16;;;;;;;41.75;26.55;;;11.80;99.90;;;;;;5071174;22;20135;-88
2023/10/23 09:18:51;;;;;;;45.22;27.25;;;13.00;99.90;;;;;;5085213;28;20024;-91
2023/10/23 09:21:31;;;;;;;56.33;30.23;;;13.00;99.90;;;;;;5082507;28;20020;-88
2023/10/23 09:24:15;;;;;;;62.37;32.03;;;11.60;99.90;;;;;;5080329;28;20086;-89
2023/10/23 09:26:41;;;;;;;60.72;31.27;;;12.60;99.90;;;;;;5083528;28;20310;-89
2023/10/23 09:29:07;;;;;;;58.67;30.20;;;13.20;99.90;;;;;;5079163;28;20071;-89
2023/10/23 09:31:40;;;;;;;54.45;30.02;;;11.60;99.90;;;;;;5089127;28;20491;-90
2023/10/23 09:34:20;;;;;;;54.17;30.10;;;11.90;99.90;;;;;;5093796;28;20024;-88
2023/10/23 09:36:47;;;;;;;58.40;30.30;;;11.70;99.90;;;;;;5092282;28;20035;-89
2023/10/23 09:39:22;;;;;;;60.22;30.05;;;12.50;99.90;;;;;;5082209;28;20055;-88
2023/10/23 09:41:57;;;;;;;53.67;28.83;;;13.00;99.90;;;;;;5085348;28;20033;-89
2023/10/23 09:44:24;;;;;;;53.58;28.15;;;13.40;99.90;;;;;;5087569;28;20444;-90
2023/10/23 09:47:03;;;;;;;49.60;27.80;;;12.80;99.90;;;;;;5085690;28;20040;-89
2023/10/23 09:49:41;;;;;;;54.47;29.30;;;11.90;99.90;;;;;;5085063;28;20487;-89
2023/10/23 09:52:09;;;;;;;51.53;26.50;;;13.00;99.90;;;;;;5080133;28;20377;-89
2023/10/23 09:54:44;;;;;;;47.70;26.73;;;12.80;99.90;;;;;;5089428;28;20024;-88
2023/10/23 09:57:33;;;;;;;46.65;26.58;;;13.00;99.90;;;;;;5087709;28;20082;-87
2023/10/23 10:00:13;;;;;;;40.92;24.45;;;11.80;99.90;;;;;;5085383;28;20047;-89
2023/10/23 10:03:04;;;;;;;48.73;27.13;;;11.90;99.90;;;;;;5094041;28;20279;-91
2023/10/23 10:05:42;;;;;;;;;;;13.40;99.90;;;;;;5087797;28;20372;-90
2023/10/23 10:08:23;;;;;;;48.28;26.20;;;11.60;99.90;;;;;;5084123;28;20287;-92
2023/10/23 10:10:58;;;;;;;;;;;12.00;99.90;;;;;;5090283;23;20056;-90
2023/10/23 10:13:39;;;;;;;44.60;25.55;;;11.40;99.90;;;;;;5092126;28;19965;-90
2023/10/23 10:16:17;;;;;;;53.47;28.27;;;12.80;99.90;;;;;;5085841;28;20060;-93
2023/10/23 10:21:30;;;;;;;42.90;24.45;;;12.00;99.90;;;;;;5081058;28;20035;-87
2023/10/23 10:23:58;;;;;;;35.80;22.05;;;13.50;99.90;;;;;;5088752;28;20020;-87
2023/10/23 10:26:26;;;;;;;37.80;23.50;;;12.10;99.90;;;;;;5080224;28;20028;-87
2023/10/23 10:28:54;;;;;;;32.70;20.48;;;12.20;99.90;;;;;;5089411;28;20043;-92
2023/10/23 10:34:07;;;;;;;32.30;19.58;;;13.30;99.90;;;;;;5104855;28;20011;-91
2023/10/23 10:36:33;;;;;;;34.55;19.90;;;13.50;99.90;;;;;;5108349;22;20030;-90
2023/10/23 10:39:03;;;;;;;35.08;20.05;;;13.50;99.90;;;;;;5096162;28;20108;-92
2023/10/23 10:41:53;;;;;;;30.02;17.70;;;12.50;99.90;;;;;;5094013;28;20024;-92
2023/10/23 10:44:29;;;;;;;26.30;17.20;;;12.30;99.90;;;;;;5088543;28;20111;-87
2023/10/23 10:46:55;;;;;;;30.15;17.25;;;13.90;99.90;;;;;;5091472;28;20383;-89
2023/10/23 10:49:43;;;;;;;28.98;17.50;;;12.40;99.90;;;;;;5084595;28;20040;-88
2023/10/23 10:52:28;;;;;;;31.05;17.75;;;12.30;99.90;;;;;;5074785;28;20099;-88
2023/10/23 10:55:00;;;;;;;26.90;15.57;;;13.40;99.90;;;;;;5085084;28;20055;-87
2023/10/23 10:57:45;;;;;;;29.25;16.23;;;13.70;99.90;;;;;;5087408;28;20036;-88
2023/10/23 11:00:12;;;;;;;24.23;15.68;;;12.20;99.90;;;;;;5083199;28;20035;-90
2023/10/23 11:02:49;;;;;;;30.63;18.10;;;12.60;99.90;;;;;;5086447;28;20027;-91
2023/10/23 11:05:15;;;;;;;30.63;18.92;;;13.40;99.90;;;;;;5078105;28;20484;-85
2023/10/23 11:07:41;;;;;;;31.27;20.52;;;12.60;99.90;;;;;;5085713;28;20073;-87
2023/10/23 11:10:29;;;;;;;33.97;21.38;;;13.70;99.90;;;;;;5088207;28;20383;-89
2023/10/23 11:12:55;;;;;;;30.42;19.73;;;12.70;99.90;;;;;;5082074;28;20388;-88
2023/10/23 11:15:39;;;;;;;28.00;18.83;;;13.60;99.90;;;;;;5085469;28;20027;-88
2023/10/23 11:18:04;;;;;;;32.88;20.15;;;12.80;99.90;;;;;;5085180;28;20021;-88
2023/10/23 11:20:36;;;;;;;29.05;19.08;;;12.80;99.90;;;;;;5088245;28;20024;-86
2023/10/23 11:23:21;;;;;;;32.35;19.60;;;12.80;99.90;;;;;;5082948;28;20033;-89
2023/10/23 11:25:51;;;;;;;28.48;18.85;;;13.40;99.90;;;;;;5089238;28;20031;-90
2023/10/23 11:28:20;;;;;;;26.35;17.25;;;12.80;99.90;;;;;;5090109;28;20119;-89
2023/10/23 11:30:54;;;;;;;25.05;15.95;;;12.80;99.90;;;;;;5093323;28;20028;-92
2023/10/23 11:33:20;;;;;;;20.95;15.45;;;12.80;99.90;;;;;;5098238;28;20028;-91
2023/10/23 11:35:46;;;;;;;23.42;15.68;;;12.80;99.90;;;;;;5103028;28;20030;-89
2023/10/23 11:38:18;;;;;;;17.30;13.70;;;12.80;99.90;;;;;;5092906;28;20059;-90
2023/10/23 11:40:44;;;;;;;24.85;14.43;;;12.80;99.90;;;;;;5078938;28;20089;-92
2023/10/23 11:43:15;;;;;;;19.38;13.80;;;12.80;99.90;;;;;;5091595;28;20028;-90
2023/10/23 11:45:42;;;;;;;19.52;11.98;;;12.90;99.90;;;;;;5079960;28;20039;-90
2023/10/23 11:48:09;;;;;;;20.23;14.02;;;12.80;99.90;;;;;;5081065;28;20055;-90
2023/10/23 11:50:36;;;;;;;20.48;13.82;;;13.70;99.90;;;;;;5155161;22;20432;-88
2023/10/23 11:53:26;;;;;;;17.48;13.75;;;13.40;99.90;;;;;;5081390;28;20028;-89
2023/10/23 11:56:14;;;;;;;22.73;14.00;;;13.00;99.90;;;;;;5084556;28;20118;-89
2023/10/23 11:59:02;;;;;;;19.70;14.02;;;13.20;99.90;;;;;;5103243;28;20278;-89
2023/10/23 12:01:28;;;;;;;30.08;14.65;;;13.40;99.90;;;;;;5098494;28;20028;-89
2023/10/23 12:03:53;;;;;;;20.10;13.80;;;13.80;99.90;;;;;;5087335;28;20055;-89
2023/10/23 12:06:34;;;;;;;17.70;12.85;;;14.40;99.90;;;;;;5092894;28;20021;-90
2023/10/23 12:09:00;;;;;;;21.00;14.02;;;13.10;99.90;;;;;;5098775;28;20036;-90
2023/10/23 12:11:48;;;;;;;24.05;15.68;;;14.60;99.90;;;;;;5093086;28;20498;-89
2023/10/23 12:14:28;;;;;;;22.17;15.05;;;13.00;99.90;;;;;;5078737;28;20469;-90
2023/10/23 12:17:09;;;;;;;22.25;13.25;;;13.10;99.90;;;;;;5079155;28;20112;-90
2023/10/23 12:19:35;;;;;;;19.35;13.27;;;14.60;99.90;;;;;;5090013;28;20028;-91
2023/10/23 12:22:11;;;;;;;23.30;13.95;;;14.70;99.90;;;;;;5083890;28;20154;-90
2023/10/23 12:24:51;;;;;;;21.20;13.52;;;13.20;99.90;;;;;;5083633;28;20024;-90
2023/10/23 12:27:26;;;;;;;20.58;12.60;;;13.60;99.90;;;;;;5092080;28;20028;-91
2023/10/23 12:30:04;;;;;;;19.88;12.98;;;13.30;99.90;;;;;;5081854;28;20124;-89
2023/10/23 12:32:32;;;;;;;19.52;12.48;;;13.20;99.90;;;;;;5083870;28;20020;-91
2023/10/23 12:35:04;;;;;;;18.15;11.90;;;13.00;99.90;;;;;;5092098;28;20027;-94
2023/10/23 12:37:41;;;;;;;18.13;12.10;;;13.20;99.90;;;;;;5083381;28;20036;-93
2023/10/23 12:40:22;;;;;;;16.40;11.18;;;14.00;99.90;;;;;;5090973;28;20028;-86
2023/10/23 12:43:13;;;;;;;20.55;12.30;;;13.30;99.90;;;;;;5087750;28;20102;-92
2023/10/23 12:45:53;;;;;;;18.83;11.80;;;13.70;99.90;;;;;;5125654;23;20088;-91
2023/10/23 12:48:18;;;;;;;21.65;12.98;;;14.30;99.90;;;;;;5050644;28;20091;-91
2023/10/23 12:50:47;;;;;;;16.92;12.18;;;13.40;99.90;;;;;;5051686;28;20033;-89
2023/10/23 12:53:13;;;;;;;18.17;10.80;;;14.30;99.90;;;;;;5091587;22;20079;-92
2023/10/23 12:55:54;;;;;;;19.73;11.55;;;13.70;99.90;;;;;;5074505;22;20143;-90
2023/10/23 12:58:34;;;;;;;;;;;15.00;99.90;;;;;;5053607;28;20025;-91